sensor_id;sensor_type;location;lat;lon;timestamp;P1;durP1;ratioP1;P2;durP2;ratioP2
5569;SDS011;2808;51.240;6.794;2023-04-25T00:00:13;15.30;;;4.50;;
5569;SDS011;2808;51.240;6.794;2023-04-25T00:02:41;16.50;;;4.63;;
5569;SDS011;2808;51.240;6.794;2023-04-25T00:05:12;17.50;;;4.53;;
5569;SDS011;2808;51.240;6.794;2023-04-25T00:07:41;21.10;;;4.17;;
5569;SDS011;2808;51.240;6.794;2023-04-25T00:10:11;15.70;;;4.83;;
5569;SDS011;2808;51.240;6.794;2023-04-25T00:12:41;16.30;;;4.40;;
5569;SDS011;2808;51.240;6.794;2023-04-25T00:15:08;14.03;;;4.03;;
5569;SDS011;2808;51.240;6.794;2023-04-25T00:17:37;16.57;;;4.77;;
5569;SDS011;2808;51.240;6.794;2023-04-25T00:20:05;19.63;;;4.27;;
5569;SDS011;2808;51.240;6.794;2023-04-25T00:22:34;15.77;;;4.17;;
5569;SDS011;2808;51.240;6.794;2023-04-25T00:25:05;16.20;;;4.80;;
5569;SDS011;2808;51.240;6.794;2023-04-25T00:27:35;14.80;;;4.00;;
5569;SDS011;2808;51.240;6.794;2023-04-25T00:30:04;19.23;;;4.90;;
5569;SDS011;2808;51.240;6.794;2023-04-25T00:32:33;17.10;;;5.00;;
5569;SDS011;2808;51.240;6.794;2023-04-25T00:35:01;13.10;;;3.60;;
5569;SDS011;2808;51.240;6.794;2023-04-25T00:37:28;17.77;;;4.50;;
5569;SDS011;2808;51.240;6.794;2023-04-25T00:39:57;27.67;;;4.43;;
5569;SDS011;2808;51.240;6.794;2023-04-25T00:42:26;14.20;;;3.97;;
5569;SDS011;2808;51.240;6.794;2023-04-25T00:45:05;14.67;;;3.60;;
5569;SDS011;2808;51.240;6.794;2023-04-25T00:47:42;14.73;;;4.50;;
5569;SDS011;2808;51.240;6.794;2023-04-25T00:50:13;13.20;;;3.50;;
5569;SDS011;2808;51.240;6.794;2023-04-25T00:52:43;13.73;;;4.20;;
5569;SDS011;2808;51.240;6.794;2023-04-25T00:55:11;18.57;;;4.00;;
5569;SDS011;2808;51.240;6.794;2023-04-25T00:57:46;17.77;;;4.30;;
5569;SDS011;2808;51.240;6.794;2023-04-25T01:00:21;12.13;;;4.03;;
5569;SDS011;2808;51.240;6.794;2023-04-25T01:02:52;17.00;;;3.83;;
5569;SDS011;2808;51.240;6.794;2023-04-25T01:05:21;18.87;;;3.10;;
5569;SDS011;2808;51.240;6.794;2023-04-25T01:07:50;19.73;;;4.73;;
5569;SDS011;2808;51.240;6.794;2023-04-25T01:10:17;13.73;;;4.03;;
5569;SDS011;2808;51.240;6.794;2023-04-25T01:12:48;23.17;;;4.43;;
5569;SDS011;2808;51.240;6.794;2023-04-25T01:25:21;10.80;;;3.90;;
5569;SDS011;2808;51.240;6.794;2023-04-25T01:27:54;16.10;;;4.57;;
5569;SDS011;2808;51.240;6.794;2023-04-25T01:30:36;13.40;;;3.70;;
5569;SDS011;2808;51.240;6.794;2023-04-25T01:33:04;25.73;;;4.50;;
5569;SDS011;2808;51.240;6.794;2023-04-25T01:35:35;18.93;;;4.80;;
5569;SDS011;2808;51.240;6.794;2023-04-25T01:38:04;14.73;;;3.90;;
5569;SDS011;2808;51.240;6.794;2023-04-25T01:40:32;21.27;;;3.73;;
5569;SDS011;2808;51.240;6.794;2023-04-25T01:46:16;14.93;;;4.20;;
5569;SDS011;2808;51.240;6.794;2023-04-25T01:49:33;18.47;;;5.07;;
5569;SDS011;2808;51.240;6.794;2023-04-25T01:52:46;12.37;;;3.37;;
5569;SDS011;2808;51.240;6.794;2023-04-25T01:55:56;15.23;;;3.80;;
5569;SDS011;2808;51.240;6.794;2023-04-25T02:06:23;11.40;;;4.50;;
5569;SDS011;2808;51.240;6.794;2023-04-25T02:09:42;13.03;;;4.30;;
5569;SDS011;2808;51.240;6.794;2023-04-25T02:12:50;15.57;;;4.00;;
5569;SDS011;2808;51.240;6.794;2023-04-25T02:15:48;14.97;;;4.40;;
5569;SDS011;2808;51.240;6.794;2023-04-25T02:19:18;12.97;;;3.73;;
5569;SDS011;2808;51.240;6.794;2023-04-25T02:25:52;12.00;;;3.60;;
5569;SDS011;2808;51.240;6.794;2023-04-25T02:28:34;14.23;;;3.80;;
5569;SDS011;2808;51.240;6.794;2023-04-25T02:42:42;10.50;;;2.90;;
5569;SDS011;2808;51.240;6.794;2023-04-25T02:52:39;15.27;;;4.10;;
5569;SDS011;2808;51.240;6.794;2023-04-25T02:55:10;8.67;;;3.07;;
5569;SDS011;2808;51.240;6.794;2023-04-25T02:58:26;14.27;;;3.53;;
5569;SDS011;2808;51.240;6.794;2023-04-25T03:01:24;19.90;;;3.83;;
5569;SDS011;2808;51.240;6.794;2023-04-25T03:04:09;14.07;;;3.73;;
5569;SDS011;2808;51.240;6.794;2023-04-25T03:06:47;20.67;;;3.83;;
5569;SDS011;2808;51.240;6.794;2023-04-25T04:01:24;11.77;;;4.50;;
5569;SDS011;2808;51.240;6.794;2023-04-25T04:04:25;17.27;;;5.00;;
5569;SDS011;2808;51.240;6.794;2023-04-25T04:07:10;17.00;;;4.77;;
5569;SDS011;2808;51.240;6.794;2023-04-25T04:16:50;33.27;;;10.27;;
5569;SDS011;2808;51.240;6.794;2023-04-25T04:23:27;18.37;;;4.67;;
5569;SDS011;2808;51.240;6.794;2023-04-25T04:26:00;28.57;;;4.90;;
5569;SDS011;2808;51.240;6.794;2023-04-25T04:28:52;16.13;;;5.00;;
5569;SDS011;2808;51.240;6.794;2023-04-25T04:31:27;16.90;;;4.47;;
5569;SDS011;2808;51.240;6.794;2023-04-25T04:34:12;23.20;;;5.50;;
5569;SDS011;2808;51.240;6.794;2023-04-25T04:36:52;16.33;;;4.70;;
5569;SDS011;2808;51.240;6.794;2023-04-25T04:39:51;18.53;;;4.37;;
5569;SDS011;2808;51.240;6.794;2023-04-25T04:42:43;24.83;;;5.70;;
5569;SDS011;2808;51.240;6.794;2023-04-25T04:45:12;18.30;;;4.73;;
5569;SDS011;2808;51.240;6.794;2023-04-25T04:48:23;19.23;;;4.27;;
5569;SDS011;2808;51.240;6.794;2023-04-25T04:52:12;23.40;;;5.50;;
5569;SDS011;2808;51.240;6.794;2023-04-25T04:54:41;23.83;;;5.33;;
5569;SDS011;2808;51.240;6.794;2023-04-25T04:58:00;19.00;;;5.13;;
5569;SDS011;2808;51.240;6.794;2023-04-25T05:01:21;19.17;;;4.03;;
5569;SDS011;2808;51.240;6.794;2023-04-25T05:04:21;17.53;;;5.60;;
5569;SDS011;2808;51.240;6.794;2023-04-25T05:07:05;24.40;;;5.57;;
5569;SDS011;2808;51.240;6.794;2023-04-25T05:09:38;19.40;;;4.40;;
5569;SDS011;2808;51.240;6.794;2023-04-25T05:12:09;19.30;;;4.20;;
5569;SDS011;2808;51.240;6.794;2023-04-25T05:14:37;19.13;;;5.07;;
5569;SDS011;2808;51.240;6.794;2023-04-25T05:17:05;29.60;;;6.17;;
5569;SDS011;2808;51.240;6.794;2023-04-25T05:19:33;20.10;;;4.63;;
5569;SDS011;2808;51.240;6.794;2023-04-25T05:22:01;18.30;;;4.17;;
5569;SDS011;2808;51.240;6.794;2023-04-25T05:24:29;13.67;;;4.73;;
5569;SDS011;2808;51.240;6.794;2023-04-25T05:27:00;19.43;;;4.73;;
5569;SDS011;2808;51.240;6.794;2023-04-25T05:29:28;25.90;;;5.13;;
5569;SDS011;2808;51.240;6.794;2023-04-25T05:31:56;17.47;;;3.77;;
5569;SDS011;2808;51.240;6.794;2023-04-25T05:34:23;14.70;;;4.43;;
5569;SDS011;2808;51.240;6.794;2023-04-25T05:36:53;18.10;;;4.17;;
5569;SDS011;2808;51.240;6.794;2023-04-25T05:39:24;16.00;;;4.50;;
5569;SDS011;2808;51.240;6.794;2023-04-25T05:41:52;18.73;;;4.20;;
5569;SDS011;2808;51.240;6.794;2023-04-25T05:44:21;22.20;;;4.67;;
5569;SDS011;2808;51.240;6.794;2023-04-25T05:46:48;15.97;;;3.73;;
5569;SDS011;2808;51.240;6.794;2023-04-25T05:49:17;15.07;;;4.07;;
5569;SDS011;2808;51.240;6.794;2023-04-25T05:51:45;18.07;;;4.37;;
5569;SDS011;2808;51.240;6.794;2023-04-25T05:54:12;17.33;;;4.70;;
5569;SDS011;2808;51.240;6.794;2023-04-25T05:56:39;13.70;;;4.20;;
5569;SDS011;2808;51.240;6.794;2023-04-25T05:59:07;16.90;;;4.60;;
5569;SDS011;2808;51.240;6.794;2023-04-25T06:01:36;18.73;;;6.63;;
5569;SDS011;2808;51.240;6.794;2023-04-25T06:04:03;19.73;;;4.40;;
5569;SDS011;2808;51.240;6.794;2023-04-25T06:06:30;17.67;;;4.90;;
5569;SDS011;2808;51.240;6.794;2023-04-25T06:08:58;18.47;;;3.87;;
5569;SDS011;2808;51.240;6.794;2023-04-25T06:11:25;17.63;;;4.50;;
5569;SDS011;2808;51.240;6.794;2023-04-25T06:13:53;18.93;;;4.70;;
5569;SDS011;2808;51.240;6.794;2023-04-25T06:16:20;21.80;;;5.10;;
5569;SDS011;2808;51.240;6.794;2023-04-25T06:18:49;21.73;;;5.17;;
5569;SDS011;2808;51.240;6.794;2023-04-25T06:21:16;18.23;;;5.50;;
5569;SDS011;2808;51.240;6.794;2023-04-25T06:23:43;18.93;;;4.50;;
5569;SDS011;2808;51.240;6.794;2023-04-25T06:26:11;17.47;;;4.03;;
5569;SDS011;2808;51.240;6.794;2023-04-25T06:28:38;20.17;;;4.13;;
5569;SDS011;2808;51.240;6.794;2023-04-25T06:31:06;16.60;;;4.37;;
5569;SDS011;2808;51.240;6.794;2023-04-25T06:33:33;14.10;;;4.13;;
5569;SDS011;2808;51.240;6.794;2023-04-25T06:36:02;22.70;;;4.90;;
5569;SDS011;2808;51.240;6.794;2023-04-25T06:38:30;23.43;;;4.00;;
5569;SDS011;2808;51.240;6.794;2023-04-25T06:40:57;18.57;;;5.00;;
5569;SDS011;2808;51.240;6.794;2023-04-25T06:43:24;13.00;;;3.80;;
5569;SDS011;2808;51.240;6.794;2023-04-25T06:45:52;23.77;;;4.50;;
5569;SDS011;2808;51.240;6.794;2023-04-25T06:48:19;19.10;;;4.00;;
5569;SDS011;2808;51.240;6.794;2023-04-25T06:50:47;27.93;;;4.40;;
5569;SDS011;2808;51.240;6.794;2023-04-25T06:53:16;20.67;;;4.10;;
5569;SDS011;2808;51.240;6.794;2023-04-25T06:55:43;18.43;;;3.73;;
5569;SDS011;2808;51.240;6.794;2023-04-25T06:58:11;21.23;;;3.80;;
5569;SDS011;2808;51.240;6.794;2023-04-25T07:00:38;25.43;;;3.97;;
5569;SDS011;2808;51.240;6.794;2023-04-25T07:03:05;14.70;;;3.60;;
5569;SDS011;2808;51.240;6.794;2023-04-25T07:05:33;17.53;;;3.23;;
5569;SDS011;2808;51.240;6.794;2023-04-25T07:08:00;14.47;;;4.10;;
5569;SDS011;2808;51.240;6.794;2023-04-25T07:10:30;18.27;;;3.70;;
5569;SDS011;2808;51.240;6.794;2023-04-25T07:12:57;19.40;;;3.70;;
5569;SDS011;2808;51.240;6.794;2023-04-25T07:15:25;15.47;;;3.90;;
5569;SDS011;2808;51.240;6.794;2023-04-25T07:17:52;21.27;;;4.17;;
5569;SDS011;2808;51.240;6.794;2023-04-25T07:20:19;13.77;;;3.00;;
5569;SDS011;2808;51.240;6.794;2023-04-25T07:22:47;15.60;;;3.30;;
5569;SDS011;2808;51.240;6.794;2023-04-25T07:25:15;18.63;;;3.37;;
5569;SDS011;2808;51.240;6.794;2023-04-25T07:27:43;20.00;;;3.70;;
5569;SDS011;2808;51.240;6.794;2023-04-25T07:30:11;15.83;;;3.13;;
5569;SDS011;2808;51.240;6.794;2023-04-25T07:32:39;15.10;;;3.50;;
5569;SDS011;2808;51.240;6.794;2023-04-25T07:35:06;18.07;;;3.47;;
5569;SDS011;2808;51.240;6.794;2023-04-25T07:37:35;14.47;;;3.13;;
5569;SDS011;2808;51.240;6.794;2023-04-25T07:40:03;19.70;;;3.33;;
5569;SDS011;2808;51.240;6.794;2023-04-25T07:42:31;14.80;;;3.10;;
5569;SDS011;2808;51.240;6.794;2023-04-25T07:45:01;15.93;;;3.33;;
5569;SDS011;2808;51.240;6.794;2023-04-25T07:47:29;15.10;;;3.80;;
5569;SDS011;2808;51.240;6.794;2023-04-25T07:49:56;18.30;;;3.73;;
5569;SDS011;2808;51.240;6.794;2023-04-25T07:52:23;11.97;;;2.60;;
5569;SDS011;2808;51.240;6.794;2023-04-25T07:54:51;13.50;;;3.03;;
5569;SDS011;2808;51.240;6.794;2023-04-25T07:57:18;12.90;;;3.00;;
5569;SDS011;2808;51.240;6.794;2023-04-25T07:59:46;17.53;;;3.23;;
5569;SDS011;2808;51.240;6.794;2023-04-25T08:02:15;9.30;;;2.57;;
5569;SDS011;2808;51.240;6.794;2023-04-25T08:04:42;20.97;;;4.83;;
5569;SDS011;2808;51.240;6.794;2023-04-25T08:07:10;12.67;;;2.43;;
5569;SDS011;2808;51.240;6.794;2023-04-25T08:09:37;9.47;;;2.70;;
5569;SDS011;2808;51.240;6.794;2023-04-25T08:12:04;12.20;;;3.60;;
5569;SDS011;2808;51.240;6.794;2023-04-25T08:14:32;15.50;;;3.23;;
5569;SDS011;2808;51.240;6.794;2023-04-25T08:17:02;18.27;;;3.60;;
5569;SDS011;2808;51.240;6.794;2023-04-25T08:19:31;18.13;;;3.73;;
5569;SDS011;2808;51.240;6.794;2023-04-25T08:21:58;19.70;;;5.43;;
5569;SDS011;2808;51.240;6.794;2023-04-25T08:24:26;14.17;;;3.87;;
5569;SDS011;2808;51.240;6.794;2023-04-25T08:26:53;25.83;;;5.60;;
5569;SDS011;2808;51.240;6.794;2023-04-25T08:29:21;15.30;;;3.13;;
5569;SDS011;2808;51.240;6.794;2023-04-25T08:31:50;17.07;;;3.37;;
5569;SDS011;2808;51.240;6.794;2023-04-25T08:34:18;12.33;;;3.37;;
5569;SDS011;2808;51.240;6.794;2023-04-25T08:36:47;9.03;;;2.73;;
5569;SDS011;2808;51.240;6.794;2023-04-25T08:39:15;10.73;;;2.83;;
5569;SDS011;2808;51.240;6.794;2023-04-25T08:41:43;14.80;;;3.30;;
5569;SDS011;2808;51.240;6.794;2023-04-25T08:44:11;9.70;;;2.90;;
5569;SDS011;2808;51.240;6.794;2023-04-25T08:46:38;10.80;;;2.90;;
5569;SDS011;2808;51.240;6.794;2023-04-25T08:49:06;14.43;;;3.10;;
5569;SDS011;2808;51.240;6.794;2023-04-25T08:51:35;13.00;;;2.87;;
5569;SDS011;2808;51.240;6.794;2023-04-25T08:54:13;8.07;;;2.63;;
5569;SDS011;2808;51.240;6.794;2023-04-25T08:56:41;10.23;;;2.60;;
5569;SDS011;2808;51.240;6.794;2023-04-25T08:59:11;16.50;;;2.70;;
5569;SDS011;2808;51.240;6.794;2023-04-25T09:01:39;11.43;;;2.63;;
5569;SDS011;2808;51.240;6.794;2023-04-25T09:04:06;9.20;;;2.40;;
5569;SDS011;2808;51.240;6.794;2023-04-25T09:06:34;10.80;;;2.40;;
5569;SDS011;2808;51.240;6.794;2023-04-25T09:09:05;10.10;;;2.40;;
5569;SDS011;2808;51.240;6.794;2023-04-25T09:11:35;11.90;;;2.60;;
5569;SDS011;2808;51.240;6.794;2023-04-25T09:14:15;10.07;;;2.90;;
5569;SDS011;2808;51.240;6.794;2023-04-25T09:16:58;13.20;;;3.70;;
5569;SDS011;2808;51.240;6.794;2023-04-25T09:19:28;14.40;;;3.20;;
5569;SDS011;2808;51.240;6.794;2023-04-25T09:21:56;9.43;;;2.77;;
5569;SDS011;2808;51.240;6.794;2023-04-25T09:24:35;14.27;;;2.80;;
5569;SDS011;2808;51.240;6.794;2023-04-25T09:27:05;6.80;;;2.40;;
5569;SDS011;2808;51.240;6.794;2023-04-25T09:29:36;10.30;;;2.90;;
5569;SDS011;2808;51.240;6.794;2023-04-25T09:32:15;11.83;;;2.63;;
5569;SDS011;2808;51.240;6.794;2023-04-25T09:34:44;12.20;;;3.13;;
5569;SDS011;2808;51.240;6.794;2023-04-25T09:37:17;17.30;;;2.73;;
5569;SDS011;2808;51.240;6.794;2023-04-25T09:39:45;9.50;;;2.47;;
5569;SDS011;2808;51.240;6.794;2023-04-25T09:42:15;9.33;;;2.27;;
5569;SDS011;2808;51.240;6.794;2023-04-25T09:44:43;18.90;;;2.70;;
5569;SDS011;2808;51.240;6.794;2023-04-25T09:47:11;8.73;;;2.50;;
5569;SDS011;2808;51.240;6.794;2023-04-25T09:49:40;10.30;;;2.20;;
5569;SDS011;2808;51.240;6.794;2023-04-25T09:52:08;14.30;;;2.60;;
5569;SDS011;2808;51.240;6.794;2023-04-25T09:54:40;6.23;;;2.37;;
5569;SDS011;2808;51.240;6.794;2023-04-25T09:57:09;5.70;;;2.10;;
5569;SDS011;2808;51.240;6.794;2023-04-25T09:59:43;6.50;;;1.83;;
5569;SDS011;2808;51.240;6.794;2023-04-25T10:02:12;6.30;;;1.90;;
5569;SDS011;2808;51.240;6.794;2023-04-25T10:04:41;16.00;;;2.50;;
5569;SDS011;2808;51.240;6.794;2023-04-25T10:07:11;9.50;;;2.27;;
5569;SDS011;2808;51.240;6.794;2023-04-25T10:09:39;11.93;;;2.43;;
5569;SDS011;2808;51.240;6.794;2023-04-25T10:12:07;11.70;;;2.53;;
5569;SDS011;2808;51.240;6.794;2023-04-25T10:14:36;10.87;;;2.60;;
5569;SDS011;2808;51.240;6.794;2023-04-25T10:17:05;11.33;;;2.63;;
5569;SDS011;2808;51.240;6.794;2023-04-25T10:19:33;10.23;;;2.30;;
5569;SDS011;2808;51.240;6.794;2023-04-25T10:22:06;11.93;;;2.63;;
5569;SDS011;2808;51.240;6.794;2023-04-25T10:24:38;7.60;;;2.20;;
5569;SDS011;2808;51.240;6.794;2023-04-25T10:27:06;12.80;;;2.93;;
5569;SDS011;2808;51.240;6.794;2023-04-25T10:29:34;7.37;;;2.27;;
5569;SDS011;2808;51.240;6.794;2023-04-25T10:32:02;12.70;;;2.17;;
5569;SDS011;2808;51.240;6.794;2023-04-25T10:34:41;7.03;;;1.40;;
5569;SDS011;2808;51.240;6.794;2023-04-25T10:37:12;14.23;;;3.30;;
5569;SDS011;2808;51.240;6.794;2023-04-25T10:39:40;5.57;;;1.70;;
5569;SDS011;2808;51.240;6.794;2023-04-25T10:42:08;7.87;;;2.13;;
5569;SDS011;2808;51.240;6.794;2023-04-25T10:44:36;9.57;;;2.10;;
5569;SDS011;2808;51.240;6.794;2023-04-25T10:47:06;9.43;;;2.03;;
5569;SDS011;2808;51.240;6.794;2023-04-25T10:49:34;15.13;;;2.10;;
5569;SDS011;2808;51.240;6.794;2023-04-25T10:52:17;9.03;;;1.80;;
5569;SDS011;2808;51.240;6.794;2023-04-25T10:54:51;5.10;;;1.50;;
5569;SDS011;2808;51.240;6.794;2023-04-25T10:57:26;7.20;;;1.80;;
5569;SDS011;2808;51.240;6.794;2023-04-25T10:59:58;8.17;;;1.73;;
5569;SDS011;2808;51.240;6.794;2023-04-25T11:02:30;9.83;;;2.07;;
5569;SDS011;2808;51.240;6.794;2023-04-25T11:04:57;11.00;;;2.10;;
5569;SDS011;2808;51.240;6.794;2023-04-25T11:07:28;9.40;;;2.10;;
5569;SDS011;2808;51.240;6.794;2023-04-25T11:10:04;8.40;;;2.10;;
5569;SDS011;2808;51.240;6.794;2023-04-25T11:12:32;11.43;;;2.07;;
5569;SDS011;2808;51.240;6.794;2023-04-25T11:15:01;9.60;;;1.87;;
5569;SDS011;2808;51.240;6.794;2023-04-25T11:17:29;10.13;;;2.13;;
5569;SDS011;2808;51.240;6.794;2023-04-25T11:19:57;6.53;;;1.80;;
5569;SDS011;2808;51.240;6.794;2023-04-25T11:22:25;11.03;;;2.23;;
5569;SDS011;2808;51.240;6.794;2023-04-25T11:24:55;15.40;;;2.07;;
5569;SDS011;2808;51.240;6.794;2023-04-25T11:27:22;4.70;;;1.47;;
5569;SDS011;2808;51.240;6.794;2023-04-25T11:29:50;8.10;;;2.03;;
5569;SDS011;2808;51.240;6.794;2023-04-25T11:32:20;13.60;;;2.43;;
5569;SDS011;2808;51.240;6.794;2023-04-25T11:34:48;10.80;;;2.27;;
5569;SDS011;2808;51.240;6.794;2023-04-25T11:37:15;16.47;;;1.93;;
5569;SDS011;2808;51.240;6.794;2023-04-25T11:39:45;13.20;;;1.73;;
5569;SDS011;2808;51.240;6.794;2023-04-25T11:42:13;10.20;;;2.43;;
5569;SDS011;2808;51.240;6.794;2023-04-25T11:44:40;8.73;;;2.10;;
5569;SDS011;2808;51.240;6.794;2023-04-25T11:47:08;8.80;;;2.13;;
5569;SDS011;2808;51.240;6.794;2023-04-25T11:49:35;13.70;;;2.27;;
5569;SDS011;2808;51.240;6.794;2023-04-25T11:52:03;8.50;;;2.00;;
5569;SDS011;2808;51.240;6.794;2023-04-25T11:54:35;8.50;;;2.00;;
5569;SDS011;2808;51.240;6.794;2023-04-25T11:57:04;9.37;;;2.23;;
5569;SDS011;2808;51.240;6.794;2023-04-25T11:59:32;11.80;;;2.27;;
5569;SDS011;2808;51.240;6.794;2023-04-25T12:01:59;5.90;;;1.87;;
5569;SDS011;2808;51.240;6.794;2023-04-25T12:04:29;6.57;;;1.90;;
5569;SDS011;2808;51.240;6.794;2023-04-25T12:06:57;6.90;;;1.67;;
5569;SDS011;2808;51.240;6.794;2023-04-25T12:09:29;7.70;;;1.83;;
5569;SDS011;2808;51.240;6.794;2023-04-25T12:11:58;7.53;;;2.07;;
5569;SDS011;2808;51.240;6.794;2023-04-25T12:14:30;11.30;;;2.70;;
5569;SDS011;2808;51.240;6.794;2023-04-25T12:17:00;13.87;;;3.00;;
5569;SDS011;2808;51.240;6.794;2023-04-25T12:19:31;8.90;;;2.40;;
5569;SDS011;2808;51.240;6.794;2023-04-25T12:21:59;11.50;;;3.47;;
5569;SDS011;2808;51.240;6.794;2023-04-25T12:24:28;11.17;;;3.77;;
5569;SDS011;2808;51.240;6.794;2023-04-25T12:26:58;14.90;;;4.07;;
5569;SDS011;2808;51.240;6.794;2023-04-25T12:29:28;13.30;;;3.17;;
5569;SDS011;2808;51.240;6.794;2023-04-25T12:31:58;13.70;;;3.87;;
5569;SDS011;2808;51.240;6.794;2023-04-25T12:34:26;10.77;;;2.67;;
5569;SDS011;2808;51.240;6.794;2023-04-25T12:36:54;16.10;;;3.20;;
5569;SDS011;2808;51.240;6.794;2023-04-25T12:39:22;11.33;;;2.70;;
5569;SDS011;2808;51.240;6.794;2023-04-25T12:41:51;15.70;;;3.30;;
5569;SDS011;2808;51.240;6.794;2023-04-25T12:44:19;14.47;;;3.60;;
5569;SDS011;2808;51.240;6.794;2023-04-25T12:46:48;11.37;;;3.23;;
5569;SDS011;2808;51.240;6.794;2023-04-25T12:49:16;11.00;;;3.20;;
5569;SDS011;2808;51.240;6.794;2023-04-25T12:51:43;15.27;;;2.40;;
5569;SDS011;2808;51.240;6.794;2023-04-25T12:54:11;10.23;;;2.57;;
5569;SDS011;2808;51.240;6.794;2023-04-25T12:56:39;7.67;;;2.40;;
5569;SDS011;2808;51.240;6.794;2023-04-25T12:59:07;6.13;;;2.07;;
5569;SDS011;2808;51.240;6.794;2023-04-25T13:01:35;13.10;;;3.30;;
5569;SDS011;2808;51.240;6.794;2023-04-25T13:04:04;8.70;;;2.33;;
5569;SDS011;2808;51.240;6.794;2023-04-25T13:06:32;6.20;;;2.40;;
5569;SDS011;2808;51.240;6.794;2023-04-25T13:08:59;7.87;;;2.87;;
5569;SDS011;2808;51.240;6.794;2023-04-25T13:11:28;8.87;;;2.70;;
5569;SDS011;2808;51.240;6.794;2023-04-25T13:13:56;12.33;;;2.50;;
5569;SDS011;2808;51.240;6.794;2023-04-25T13:16:23;8.40;;;2.57;;
5569;SDS011;2808;51.240;6.794;2023-04-25T13:18:51;9.50;;;2.10;;
5569;SDS011;2808;51.240;6.794;2023-04-25T13:21:19;7.37;;;2.03;;
5569;SDS011;2808;51.240;6.794;2023-04-25T13:23:47;7.57;;;2.00;;
5569;SDS011;2808;51.240;6.794;2023-04-25T13:26:17;11.10;;;2.17;;
5569;SDS011;2808;51.240;6.794;2023-04-25T13:28:45;9.03;;;2.27;;
5569;SDS011;2808;51.240;6.794;2023-04-25T13:31:12;9.63;;;2.00;;
5569;SDS011;2808;51.240;6.794;2023-04-25T13:33:40;7.80;;;1.97;;
5569;SDS011;2808;51.240;6.794;2023-04-25T13:36:07;8.70;;;2.37;;
5569;SDS011;2808;51.240;6.794;2023-04-25T13:38:36;5.50;;;1.63;;
5569;SDS011;2808;51.240;6.794;2023-04-25T13:41:04;9.20;;;2.13;;
5569;SDS011;2808;51.240;6.794;2023-04-25T13:43:32;9.23;;;1.90;;
5569;SDS011;2808;51.240;6.794;2023-04-25T13:46:00;8.03;;;1.60;;
5569;SDS011;2808;51.240;6.794;2023-04-25T13:48:27;7.03;;;1.87;;
5569;SDS011;2808;51.240;6.794;2023-04-25T13:50:55;9.37;;;1.70;;
5569;SDS011;2808;51.240;6.794;2023-04-25T13:53:22;7.33;;;2.10;;
5569;SDS011;2808;51.240;6.794;2023-04-25T13:55:51;5.43;;;1.90;;
5569;SDS011;2808;51.240;6.794;2023-04-25T13:58:19;5.13;;;1.50;;
5569;SDS011;2808;51.240;6.794;2023-04-25T14:00:47;8.83;;;2.60;;
5569;SDS011;2808;51.240;6.794;2023-04-25T14:03:15;7.20;;;1.70;;
5569;SDS011;2808;51.240;6.794;2023-04-25T14:05:42;9.43;;;2.63;;
5569;SDS011;2808;51.240;6.794;2023-04-25T14:08:09;8.17;;;1.73;;
5569;SDS011;2808;51.240;6.794;2023-04-25T14:10:37;9.10;;;2.20;;
5569;SDS011;2808;51.240;6.794;2023-04-25T14:13:06;10.67;;;2.43;;
5569;SDS011;2808;51.240;6.794;2023-04-25T14:15:33;12.70;;;2.10;;
5569;SDS011;2808;51.240;6.794;2023-04-25T14:18:01;9.70;;;2.60;;
5569;SDS011;2808;51.240;6.794;2023-04-25T14:20:29;10.07;;;2.20;;
5569;SDS011;2808;51.240;6.794;2023-04-25T14:22:56;6.27;;;1.90;;
5569;SDS011;2808;51.240;6.794;2023-04-25T14:25:24;6.23;;;2.13;;
5569;SDS011;2808;51.240;6.794;2023-04-25T14:27:51;8.40;;;2.50;;
5569;SDS011;2808;51.240;6.794;2023-04-25T14:30:20;8.43;;;2.37;;
5569;SDS011;2808;51.240;6.794;2023-04-25T14:32:48;7.53;;;1.77;;
5569;SDS011;2808;51.240;6.794;2023-04-25T14:35:16;6.70;;;1.83;;
5569;SDS011;2808;51.240;6.794;2023-04-25T14:37:43;9.80;;;1.70;;
5569;SDS011;2808;51.240;6.794;2023-04-25T14:40:11;6.50;;;1.73;;
5569;SDS011;2808;51.240;6.794;2023-04-25T14:42:40;8.00;;;2.43;;
5569;SDS011;2808;51.240;6.794;2023-04-25T14:45:08;11.00;;;2.10;;
5569;SDS011;2808;51.240;6.794;2023-04-25T14:47:37;11.23;;;2.00;;
5569;SDS011;2808;51.240;6.794;2023-04-25T14:50:06;5.07;;;1.83;;
5569;SDS011;2808;51.240;6.794;2023-04-25T14:52:34;11.30;;;2.07;;
5569;SDS011;2808;51.240;6.794;2023-04-25T14:55:02;7.67;;;1.90;;
5569;SDS011;2808;51.240;6.794;2023-04-25T14:57:30;7.17;;;1.90;;
5569;SDS011;2808;51.240;6.794;2023-04-25T14:59:58;8.53;;;2.33;;
5569;SDS011;2808;51.240;6.794;2023-04-25T15:02:25;7.07;;;1.73;;
5569;SDS011;2808;51.240;6.794;2023-04-25T15:04:55;14.40;;;2.37;;
5569;SDS011;2808;51.240;6.794;2023-04-25T15:07:22;11.37;;;1.83;;
5569;SDS011;2808;51.240;6.794;2023-04-25T15:09:49;7.30;;;1.70;;
5569;SDS011;2808;51.240;6.794;2023-04-25T15:12:18;13.43;;;2.30;;
5569;SDS011;2808;51.240;6.794;2023-04-25T15:14:46;6.10;;;1.80;;
5569;SDS011;2808;51.240;6.794;2023-04-25T15:17:13;6.90;;;1.90;;
5569;SDS011;2808;51.240;6.794;2023-04-25T15:19:40;5.47;;;1.40;;
5569;SDS011;2808;51.240;6.794;2023-04-25T15:22:09;5.23;;;1.60;;
5569;SDS011;2808;51.240;6.794;2023-04-25T15:24:37;7.20;;;1.60;;
5569;SDS011;2808;51.240;6.794;2023-04-25T15:27:04;6.20;;;1.60;;
5569;SDS011;2808;51.240;6.794;2023-04-25T15:29:32;9.90;;;1.90;;
5569;SDS011;2808;51.240;6.794;2023-04-25T15:32:00;7.00;;;1.80;;
5569;SDS011;2808;51.240;6.794;2023-04-25T15:34:28;7.47;;;2.20;;
5569;SDS011;2808;51.240;6.794;2023-04-25T15:36:55;6.77;;;1.90;;
5569;SDS011;2808;51.240;6.794;2023-04-25T15:39:24;17.33;;;2.20;;
5569;SDS011;2808;51.240;6.794;2023-04-25T15:41:52;9.30;;;4.00;;
5569;SDS011;2808;51.240;6.794;2023-04-25T15:44:20;9.60;;;2.13;;
5569;SDS011;2808;51.240;6.794;2023-04-25T15:46:47;9.47;;;2.03;;
5569;SDS011;2808;51.240;6.794;2023-04-25T15:49:14;6.83;;;2.07;;
5569;SDS011;2808;51.240;6.794;2023-04-25T15:51:43;6.90;;;1.80;;
5569;SDS011;2808;51.240;6.794;2023-04-25T15:54:10;10.90;;;1.83;;
5569;SDS011;2808;51.240;6.794;2023-04-25T15:56:39;8.43;;;1.83;;
5569;SDS011;2808;51.240;6.794;2023-04-25T15:59:07;5.70;;;1.83;;
5569;SDS011;2808;51.240;6.794;2023-04-25T16:01:34;7.80;;;1.87;;
5569;SDS011;2808;51.240;6.794;2023-04-25T16:04:02;11.00;;;2.20;;
5569;SDS011;2808;51.240;6.794;2023-04-25T16:06:30;15.77;;;3.83;;
5569;SDS011;2808;51.240;6.794;2023-04-25T16:08:57;11.13;;;4.60;;
5569;SDS011;2808;51.240;6.794;2023-04-25T16:11:25;11.90;;;2.37;;
5569;SDS011;2808;51.240;6.794;2023-04-25T16:13:55;9.23;;;1.70;;
5569;SDS011;2808;51.240;6.794;2023-04-25T16:16:22;12.63;;;1.80;;
5569;SDS011;2808;51.240;6.794;2023-04-25T16:18:50;9.17;;;2.60;;
5569;SDS011;2808;51.240;6.794;2023-04-25T16:21:17;13.03;;;1.57;;
5569;SDS011;2808;51.240;6.794;2023-04-25T16:24:32;6.47;;;2.27;;
5569;SDS011;2808;51.240;6.794;2023-04-25T16:27:02;8.77;;;3.57;;
5569;SDS011;2808;51.240;6.794;2023-04-25T16:29:33;9.57;;;3.50;;
5569;SDS011;2808;51.240;6.794;2023-04-25T16:32:01;5.00;;;1.60;;
5569;SDS011;2808;51.240;6.794;2023-04-25T16:34:29;10.27;;;1.80;;
5569;SDS011;2808;51.240;6.794;2023-04-25T16:36:56;7.63;;;1.80;;
5569;SDS011;2808;51.240;6.794;2023-04-25T16:39:25;7.67;;;2.17;;
5569;SDS011;2808;51.240;6.794;2023-04-25T16:41:53;5.03;;;1.60;;
5569;SDS011;2808;51.240;6.794;2023-04-25T16:44:22;5.07;;;1.23;;
5569;SDS011;2808;51.240;6.794;2023-04-25T16:46:53;15.23;;;6.60;;
5569;SDS011;2808;51.240;6.794;2023-04-25T16:49:21;13.70;;;4.00;;
5569;SDS011;2808;51.240;6.794;2023-04-25T16:51:48;7.00;;;1.77;;
5569;SDS011;2808;51.240;6.794;2023-04-25T16:54:16;4.80;;;1.43;;
5569;SDS011;2808;51.240;6.794;2023-04-25T16:56:43;10.03;;;1.90;;
5569;SDS011;2808;51.240;6.794;2023-04-25T16:59:10;6.30;;;1.70;;
5569;SDS011;2808;51.240;6.794;2023-04-25T17:01:38;9.53;;;2.23;;
5569;SDS011;2808;51.240;6.794;2023-04-25T17:04:07;5.57;;;1.63;;
5569;SDS011;2808;51.240;6.794;2023-04-25T17:06:34;5.40;;;1.60;;
5569;SDS011;2808;51.240;6.794;2023-04-25T17:09:02;4.30;;;1.57;;
5569;SDS011;2808;51.240;6.794;2023-04-25T17:11:30;7.20;;;1.63;;
5569;SDS011;2808;51.240;6.794;2023-04-25T17:13:57;6.70;;;1.83;;
5569;SDS011;2808;51.240;6.794;2023-04-25T17:16:32;5.63;;;1.60;;